sensor_id;sensor_type;location;lat;lon;timestamp;temperature;humidity
44607;DHT22;30315;46.072;14.474;2023-08-12T00:01:13;22.90;71.30
44607;DHT22;30315;46.072;14.474;2023-08-12T00:03:42;22.90;71.30
44607;DHT22;30315;46.072;14.474;2023-08-12T00:06:09;22.90;71.20
44607;DHT22;30315;46.072;14.474;2023-08-12T00:08:37;22.80;71.10
44607;DHT22;30315;46.072;14.474;2023-08-12T00:11:04;22.80;71.20
44607;DHT22;30315;46.072;14.474;2023-08-12T00:13:31;22.70;71.30
44607;DHT22;30315;46.072;14.474;2023-08-12T00:15:58;22.70;71.80
44607;DHT22;30315;46.072;14.474;2023-08-12T00:18:26;22.60;71.90
44607;DHT22;30315;46.072;14.474;2023-08-12T00:20:53;22.70;72.10
44607;DHT22;30315;46.072;14.474;2023-08-12T00:23:20;22.80;72.30
44607;DHT22;30315;46.072;14.474;2023-08-12T00:25:49;22.60;72.10
44607;DHT22;30315;46.072;14.474;2023-08-12T00:28:16;22.60;72.00
44607;DHT22;30315;46.072;14.474;2023-08-12T00:30:43;22.50;72.00
44607;DHT22;30315;46.072;14.474;2023-08-12T00:33:10;22.50;72.10
44607;DHT22;30315;46.072;14.474;2023-08-12T00:35:38;22.50;71.70
44607;DHT22;30315;46.072;14.474;2023-08-12T00:38:05;22.50;72.00
44607;DHT22;30315;46.072;14.474;2023-08-12T00:40:32;22.40;71.80
44607;DHT22;30315;46.072;14.474;2023-08-12T00:43:00;22.40;72.10
44607;DHT22;30315;46.072;14.474;2023-08-12T00:45:27;22.40;72.20
44607;DHT22;30315;46.072;14.474;2023-08-12T00:47:54;22.40;72.40
44607;DHT22;30315;46.072;14.474;2023-08-12T00:50:22;22.30;72.30
44607;DHT22;30315;46.072;14.474;2023-08-12T00:52:50;22.30;72.10
44607;DHT22;30315;46.072;14.474;2023-08-12T00:55:18;22.30;72.10
44607;DHT22;30315;46.072;14.474;2023-08-12T00:57:45;22.30;72.30
44607;DHT22;30315;46.072;14.474;2023-08-12T01:00:14;22.20;72.40
44607;DHT22;30315;46.072;14.474;2023-08-12T01:02:45;22.20;72.30
44607;DHT22;30315;46.072;14.474;2023-08-12T01:05:15;22.20;72.30
44607;DHT22;30315;46.072;14.474;2023-08-12T01:07:43;22.20;72.20
44607;DHT22;30315;46.072;14.474;2023-08-12T01:10:13;22.20;72.50
44607;DHT22;30315;46.072;14.474;2023-08-12T01:13:02;22.10;72.70
44607;DHT22;30315;46.072;14.474;2023-08-12T01:15:34;22.10;72.80
44607;DHT22;30315;46.072;14.474;2023-08-12T01:18:02;22.10;72.90
44607;DHT22;30315;46.072;14.474;2023-08-12T01:20:31;22.00;73.00
44607;DHT22;30315;46.072;14.474;2023-08-12T01:23:14;22.00;72.90
44607;DHT22;30315;46.072;14.474;2023-08-12T01:25:42;22.00;73.00
44607;DHT22;30315;46.072;14.474;2023-08-12T01:28:10;22.00;72.90
44607;DHT22;30315;46.072;14.474;2023-08-12T01:30:50;22.00;73.00
44607;DHT22;30315;46.072;14.474;2023-08-12T01:33:24;22.00;72.60
44607;DHT22;30315;46.072;14.474;2023-08-12T01:36:15;21.90;72.70
44607;DHT22;30315;46.072;14.474;2023-08-12T01:38:43;21.90;72.80
44607;DHT22;30315;46.072;14.474;2023-08-12T01:41:13;21.90;73.00
44607;DHT22;30315;46.072;14.474;2023-08-12T01:43:41;21.80;73.20
44607;DHT22;30315;46.072;14.474;2023-08-12T01:46:09;21.80;73.00
44607;DHT22;30315;46.072;14.474;2023-08-12T01:48:36;21.70;73.00
44607;DHT22;30315;46.072;14.474;2023-08-12T01:51:04;21.70;73.10
44607;DHT22;30315;46.072;14.474;2023-08-12T01:53:31;21.70;73.30
44607;DHT22;30315;46.072;14.474;2023-08-12T01:55:59;21.70;73.20
44607;DHT22;30315;46.072;14.474;2023-08-12T01:58:26;21.60;73.30
44607;DHT22;30315;46.072;14.474;2023-08-12T02:00:53;21.60;73.40
44607;DHT22;30315;46.072;14.474;2023-08-12T02:03:21;21.50;73.40
44607;DHT22;30315;46.072;14.474;2023-08-12T02:05:48;21.50;74.50
44607;DHT22;30315;46.072;14.474;2023-08-12T02:08:15;21.50;73.80
44607;DHT22;30315;46.072;14.474;2023-08-12T02:10:43;21.50;73.80
44607;DHT22;30315;46.072;14.474;2023-08-12T02:13:10;21.50;73.80
44607;DHT22;30315;46.072;14.474;2023-08-12T02:15:38;21.50;73.90
44607;DHT22;30315;46.072;14.474;2023-08-12T02:18:10;21.40;73.80
44607;DHT22;30315;46.072;14.474;2023-08-12T02:23:34;21.40;73.80
44607;DHT22;30315;46.072;14.474;2023-08-12T02:26:02;21.40;73.70
44607;DHT22;30315;46.072;14.474;2023-08-12T02:28:30;21.40;73.40
44607;DHT22;30315;46.072;14.474;2023-08-12T02:30:57;21.30;73.30
44607;DHT22;30315;46.072;14.474;2023-08-12T02:33:24;21.30;72.90
44607;DHT22;30315;46.072;14.474;2023-08-12T02:35:54;21.30;73.30
44607;DHT22;30315;46.072;14.474;2023-08-12T02:38:24;21.20;73.40
44607;DHT22;30315;46.072;14.474;2023-08-12T02:40:51;21.20;73.50
44607;DHT22;30315;46.072;14.474;2023-08-12T02:43:18;21.10;73.60
44607;DHT22;30315;46.072;14.474;2023-08-12T02:45:46;21.10;73.80
44607;DHT22;30315;46.072;14.474;2023-08-12T02:48:13;21.10;74.10
44607;DHT22;30315;46.072;14.474;2023-08-12T02:50:40;21.10;74.40
44607;DHT22;30315;46.072;14.474;2023-08-12T02:53:08;21.10;74.40
44607;DHT22;30315;46.072;14.474;2023-08-12T02:55:35;21.00;74.30
44607;DHT22;30315;46.072;14.474;2023-08-12T02:58:04;21.00;74.40
44607;DHT22;30315;46.072;14.474;2023-08-12T03:00:31;21.10;74.50
44607;DHT22;30315;46.072;14.474;2023-08-12T03:02:59;21.00;74.40
44607;DHT22;30315;46.072;14.474;2023-08-12T03:05:26;21.00;74.60
44607;DHT22;30315;46.072;14.474;2023-08-12T03:07:55;20.90;74.60
44607;DHT22;30315;46.072;14.474;2023-08-12T03:10:22;21.00;74.60
44607;DHT22;30315;46.072;14.474;2023-08-12T03:12:49;21.00;74.30
44607;DHT22;30315;46.072;14.474;2023-08-12T03:15:17;20.90;73.80
44607;DHT22;30315;46.072;14.474;2023-08-12T03:17:44;20.90;73.90
44607;DHT22;30315;46.072;14.474;2023-08-12T03:20:11;20.80;74.10
44607;DHT22;30315;46.072;14.474;2023-08-12T03:22:39;20.90;74.20
44607;DHT22;30315;46.072;14.474;2023-08-12T03:25:08;20.80;74.20
44607;DHT22;30315;46.072;14.474;2023-08-12T03:27:35;20.80;74.40
44607;DHT22;30315;46.072;14.474;2023-08-12T03:30:04;20.80;74.20
44607;DHT22;30315;46.072;14.474;2023-08-12T03:32:32;20.70;74.20
44607;DHT22;30315;46.072;14.474;2023-08-12T03:35:01;20.70;74.30
44607;DHT22;30315;46.072;14.474;2023-08-12T03:37:28;20.80;74.40
44607;DHT22;30315;46.072;14.474;2023-08-12T03:39:55;20.80;74.40
44607;DHT22;30315;46.072;14.474;2023-08-12T03:42:23;20.70;74.10
44607;DHT22;30315;46.072;14.474;2023-08-12T03:44:51;20.70;74.20
44607;DHT22;30315;46.072;14.474;2023-08-12T03:47:19;20.80;74.50
44607;DHT22;30315;46.072;14.474;2023-08-12T03:49:48;20.70;74.60
44607;DHT22;30315;46.072;14.474;2023-08-12T03:52:16;20.70;74.50
44607;DHT22;30315;46.072;14.474;2023-08-12T03:54:43;20.70;74.30
44607;DHT22;30315;46.072;14.474;2023-08-12T03:57:11;20.60;74.50
44607;DHT22;30315;46.072;14.474;2023-08-12T03:59:39;20.60;74.40
44607;DHT22;30315;46.072;14.474;2023-08-12T04:02:06;20.60;74.30
44607;DHT22;30315;46.072;14.474;2023-08-12T04:04:33;20.60;74.00
44607;DHT22;30315;46.072;14.474;2023-08-12T04:07:00;20.60;74.30
44607;DHT22;30315;46.072;14.474;2023-08-12T04:09:27;20.50;74.00
44607;DHT22;30315;46.072;14.474;2023-08-12T04:11:54;20.50;74.80
44607;DHT22;30315;46.072;14.474;2023-08-12T04:14:22;20.40;74.00
44607;DHT22;30315;46.072;14.474;2023-08-12T04:16:49;20.50;74.50
44607;DHT22;30315;46.072;14.474;2023-08-12T04:19:17;20.40;74.40
44607;DHT22;30315;46.072;14.474;2023-08-12T04:21:44;20.40;74.10
44607;DHT22;30315;46.072;14.474;2023-08-12T04:24:14;20.40;74.30
44607;DHT22;30315;46.072;14.474;2023-08-12T04:26:41;20.40;74.70
44607;DHT22;30315;46.072;14.474;2023-08-12T04:29:09;20.40;74.70
44607;DHT22;30315;46.072;14.474;2023-08-12T04:31:40;20.40;74.80
44607;DHT22;30315;46.072;14.474;2023-08-12T04:34:08;20.40;74.70
44607;DHT22;30315;46.072;14.474;2023-08-12T04:36:35;20.30;74.80
44607;DHT22;30315;46.072;14.474;2023-08-12T04:39:04;20.30;75.10
44607;DHT22;30315;46.072;14.474;2023-08-12T04:41:31;20.30;75.00
44607;DHT22;30315;46.072;14.474;2023-08-12T04:44:03;20.30;75.00
44607;DHT22;30315;46.072;14.474;2023-08-12T04:46:32;20.30;75.10
44607;DHT22;30315;46.072;14.474;2023-08-12T04:48:59;20.30;75.20
44607;DHT22;30315;46.072;14.474;2023-08-12T04:51:27;20.30;75.20
44607;DHT22;30315;46.072;14.474;2023-08-12T04:53:54;20.40;75.50
44607;DHT22;30315;46.072;14.474;2023-08-12T04:56:21;20.40;75.80
44607;DHT22;30315;46.072;14.474;2023-08-12T04:58:48;20.30;75.90
44607;DHT22;30315;46.072;14.474;2023-08-12T05:01:15;20.30;75.70
44607;DHT22;30315;46.072;14.474;2023-08-12T05:03:43;20.30;75.80
44607;DHT22;30315;46.072;14.474;2023-08-12T05:06:10;20.30;75.90
44607;DHT22;30315;46.072;14.474;2023-08-12T05:08:37;20.40;76.30
44607;DHT22;30315;46.072;14.474;2023-08-12T05:11:04;20.40;76.30
44607;DHT22;30315;46.072;14.474;2023-08-12T05:13:32;20.40;76.60
44607;DHT22;30315;46.072;14.474;2023-08-12T05:16:00;20.40;76.60
44607;DHT22;30315;46.072;14.474;2023-08-12T05:18:27;20.40;76.60
44607;DHT22;30315;46.072;14.474;2023-08-12T05:20:56;20.40;76.80
44607;DHT22;30315;46.072;14.474;2023-08-12T05:23:24;20.40;77.20
44607;DHT22;30315;46.072;14.474;2023-08-12T05:25:51;20.50;77.20
44607;DHT22;30315;46.072;14.474;2023-08-12T05:28:21;20.50;77.30
44607;DHT22;30315;46.072;14.474;2023-08-12T05:30:50;20.20;77.20
44607;DHT22;30315;46.072;14.474;2023-08-12T05:33:18;20.60;77.40
44607;DHT22;30315;46.072;14.474;2023-08-12T05:35:47;20.60;77.40
44607;DHT22;30315;46.072;14.474;2023-08-12T05:38:15;20.60;77.30
44607;DHT22;30315;46.072;14.474;2023-08-12T05:40:42;20.60;77.50
44607;DHT22;30315;46.072;14.474;2023-08-12T05:43:10;20.70;77.70
44607;DHT22;30315;46.072;14.474;2023-08-12T05:45:37;20.60;77.70
44607;DHT22;30315;46.072;14.474;2023-08-12T05:48:04;20.70;77.60
44607;DHT22;30315;46.072;14.474;2023-08-12T05:50:32;20.70;77.60
44607;DHT22;30315;46.072;14.474;2023-08-12T05:53:00;20.70;77.60
44607;DHT22;30315;46.072;14.474;2023-08-12T05:55:27;20.80;77.70
44607;DHT22;30315;46.072;14.474;2023-08-12T05:57:54;20.50;77.40
44607;DHT22;30315;46.072;14.474;2023-08-12T06:00:21;20.80;77.70
44607;DHT22;30315;46.072;14.474;2023-08-12T06:02:48;20.90;77.80
44607;DHT22;30315;46.072;14.474;2023-08-12T06:05:18;20.80;77.80
44607;DHT22;30315;46.072;14.474;2023-08-12T06:07:45;20.90;77.90
44607;DHT22;30315;46.072;14.474;2023-08-12T06:10:12;20.90;78.00
44607;DHT22;30315;46.072;14.474;2023-08-12T06:12:39;20.90;78.10
44607;DHT22;30315;46.072;14.474;2023-08-12T06:15:07;21.00;78.10
44607;DHT22;30315;46.072;14.474;2023-08-12T06:17:34;21.00;78.00
44607;DHT22;30315;46.072;14.474;2023-08-12T06:20:01;21.10;78.10
44607;DHT22;30315;46.072;14.474;2023-08-12T06:22:28;21.10;78.10
44607;DHT22;30315;46.072;14.474;2023-08-12T06:24:55;21.10;78.20
44607;DHT22;30315;46.072;14.474;2023-08-12T06:27:22;21.10;78.20
44607;DHT22;30315;46.072;14.474;2023-08-12T06:29:49;21.10;78.30
44607;DHT22;30315;46.072;14.474;2023-08-12T06:32:16;21.40;78.70
44607;DHT22;30315;46.072;14.474;2023-08-12T06:34:45;21.10;78.50
44607;DHT22;30315;46.072;14.474;2023-08-12T06:37:12;21.20;78.40
44607;DHT22;30315;46.072;14.474;2023-08-12T06:39:39;21.20;78.60
44607;DHT22;30315;46.072;14.474;2023-08-12T06:42:06;21.30;79.00
44607;DHT22;30315;46.072;14.474;2023-08-12T06:44:33;21.30;78.90
44607;DHT22;30315;46.072;14.474;2023-08-12T06:47:00;21.30;78.90
44607;DHT22;30315;46.072;14.474;2023-08-12T06:49:27;21.40;78.80
44607;DHT22;30315;46.072;14.474;2023-08-12T06:51:54;21.30;78.60
44607;DHT22;30315;46.072;14.474;2023-08-12T06:54:21;21.30;78.70
44607;DHT22;30315;46.072;14.474;2023-08-12T06:56:49;21.40;79.10
44607;DHT22;30315;46.072;14.474;2023-08-12T06:59:17;21.40;79.10
44607;DHT22;30315;46.072;14.474;2023-08-12T07:01:45;21.50;79.20
44607;DHT22;30315;46.072;14.474;2023-08-12T07:04:12;21.50;79.10
44607;DHT22;30315;46.072;14.474;2023-08-12T07:06:40;21.50;79.20
44607;DHT22;30315;46.072;14.474;2023-08-12T07:09:11;21.50;79.40
44607;DHT22;30315;46.072;14.474;2023-08-12T07:11:44;21.60;79.60
44607;DHT22;30315;46.072;14.474;2023-08-12T07:14:14;21.60;79.50
44607;DHT22;30315;46.072;14.474;2023-08-12T07:16:43;21.70;79.30
44607;DHT22;30315;46.072;14.474;2023-08-12T07:19:15;21.70;79.30
44607;DHT22;30315;46.072;14.474;2023-08-12T07:21:46;21.70;79.40
44607;DHT22;30315;46.072;14.474;2023-08-12T07:24:16;21.70;79.50
44607;DHT22;30315;46.072;14.474;2023-08-12T07:26:45;21.70;79.70
44607;DHT22;30315;46.072;14.474;2023-08-12T07:29:16;21.80;79.60
44607;DHT22;30315;46.072;14.474;2023-08-12T07:31:47;21.80;79.70
44607;DHT22;30315;46.072;14.474;2023-08-12T07:34:17;21.80;79.50
44607;DHT22;30315;46.072;14.474;2023-08-12T07:36:46;21.90;79.80
44607;DHT22;30315;46.072;14.474;2023-08-12T07:39:18;22.00;79.70
44607;DHT22;30315;46.072;14.474;2023-08-12T07:41:48;22.10;79.70
44607;DHT22;30315;46.072;14.474;2023-08-12T07:44:17;22.10;79.50
44607;DHT22;30315;46.072;14.474;2023-08-12T07:46:51;22.10;79.50
44607;DHT22;30315;46.072;14.474;2023-08-12T07:49:19;22.10;79.60
44607;DHT22;30315;46.072;14.474;2023-08-12T07:51:48;22.00;79.60
44607;DHT22;30315;46.072;14.474;2023-08-12T07:54:17;22.20;79.70
44607;DHT22;30315;46.072;14.474;2023-08-12T07:56:47;22.30;80.20
44607;DHT22;30315;46.072;14.474;2023-08-12T07:59:20;22.30;79.50
44607;DHT22;30315;46.072;14.474;2023-08-12T08:01:52;22.40;79.60
44607;DHT22;30315;46.072;14.474;2023-08-12T08:04:20;22.40;79.50
44607;DHT22;30315;46.072;14.474;2023-08-12T08:06:52;22.50;79.40
44607;DHT22;30315;46.072;14.474;2023-08-12T08:09:20;22.30;78.80
44607;DHT22;30315;46.072;14.474;2023-08-12T08:11:47;22.50;78.90
44607;DHT22;30315;46.072;14.474;2023-08-12T08:14:14;22.50;78.90
44607;DHT22;30315;46.072;14.474;2023-08-12T08:16:41;22.60;78.80
44607;DHT22;30315;46.072;14.474;2023-08-12T08:19:13;22.70;79.60
44607;DHT22;30315;46.072;14.474;2023-08-12T08:21:41;22.70;78.90
44607;DHT22;30315;46.072;14.474;2023-08-12T08:24:08;22.90;78.90
44607;DHT22;30315;46.072;14.474;2023-08-12T08:26:39;22.90;77.80
44607;DHT22;30315;46.072;14.474;2023-08-12T08:29:07;23.00;77.70
44607;DHT22;30315;46.072;14.474;2023-08-12T08:31:34;23.00;77.30
44607;DHT22;30315;46.072;14.474;2023-08-12T08:34:01;23.00;77.30
44607;DHT22;30315;46.072;14.474;2023-08-12T08:36:29;23.00;77.10
44607;DHT22;30315;46.072;14.474;2023-08-12T08:38:56;23.10;77.20
44607;DHT22;30315;46.072;14.474;2023-08-12T08:41:24;23.20;76.10
44607;DHT22;30315;46.072;14.474;2023-08-12T08:43:53;23.20;74.60
44607;DHT22;30315;46.072;14.474;2023-08-12T08:46:22;23.30;74.20
44607;DHT22;30315;46.072;14.474;2023-08-12T08:48:51;23.30;74.00
44607;DHT22;30315;46.072;14.474;2023-08-12T08:51:19;23.40;73.00
44607;DHT22;30315;46.072;14.474;2023-08-12T08:53:47;23.50;72.80
44607;DHT22;30315;46.072;14.474;2023-08-12T08:56:18;23.50;72.30
44607;DHT22;30315;46.072;14.474;2023-08-12T08:58:48;23.50;72.10
44607;DHT22;30315;46.072;14.474;2023-08-12T09:01:18;23.60;72.10
44607;DHT22;30315;46.072;14.474;2023-08-12T09:03:51;23.60;72.40
44607;DHT22;30315;46.072;14.474;2023-08-12T09:06:24;23.70;71.50
44607;DHT22;30315;46.072;14.474;2023-08-12T09:08:52;23.60;71.00
44607;DHT22;30315;46.072;14.474;2023-08-12T09:11:19;23.80;71.30
44607;DHT22;30315;46.072;14.474;2023-08-12T09:13:47;23.80;71.30
44607;DHT22;30315;46.072;14.474;2023-08-12T09:16:15;23.90;70.90
44607;DHT22;30315;46.072;14.474;2023-08-12T09:18:43;24.00;70.60
44607;DHT22;30315;46.072;14.474;2023-08-12T09:21:11;24.00;68.30
44607;DHT22;30315;46.072;14.474;2023-08-12T09:23:40;24.00;67.70
44607;DHT22;30315;46.072;14.474;2023-08-12T09:26:17;24.00;66.80
44607;DHT22;30315;46.072;14.474;2023-08-12T09:28:45;24.30;67.20
44607;DHT22;30315;46.072;14.474;2023-08-12T09:31:32;24.20;67.60
44607;DHT22;30315;46.072;14.474;2023-08-12T09:34:04;24.20;66.70
44607;DHT22;30315;46.072;14.474;2023-08-12T09:36:33;24.30;67.00
44607;DHT22;30315;46.072;14.474;2023-08-12T09:39:00;24.30;67.00
44607;DHT22;30315;46.072;14.474;2023-08-12T09:41:32;24.40;66.60
44607;DHT22;30315;46.072;14.474;2023-08-12T09:44:02;24.50;66.60
44607;DHT22;30315;46.072;14.474;2023-08-12T09:46:32;24.60;66.20
44607;DHT22;30315;46.072;14.474;2023-08-12T09:49:00;24.60;66.60
44607;DHT22;30315;46.072;14.474;2023-08-12T09:51:27;24.70;65.40
44607;DHT22;30315;46.072;14.474;2023-08-12T09:54:00;24.40;64.00
44607;DHT22;30315;46.072;14.474;2023-08-12T09:56:33;24.90;63.10
44607;DHT22;30315;46.072;14.474;2023-08-12T09:59:01;25.00;61.70
44607;DHT22;30315;46.072;14.474;2023-08-12T10:01:32;25.10;61.70
44607;DHT22;30315;46.072;14.474;2023-08-12T10:04:01;25.10;61.40
44607;DHT22;30315;46.072;14.474;2023-08-12T10:06:28;25.20;59.90
44607;DHT22;30315;46.072;14.474;2023-08-12T10:08:56;25.40;59.20
44607;DHT22;30315;46.072;14.474;2023-08-12T10:11:25;25.40;57.30
44607;DHT22;30315;46.072;14.474;2023-08-12T10:13:53;25.40;57.80
44607;DHT22;30315;46.072;14.474;2023-08-12T10:16:20;25.50;58.10
44607;DHT22;30315;46.072;14.474;2023-08-12T10:18:48;25.60;58.30
44607;DHT22;30315;46.072;14.474;2023-08-12T10:21:16;25.70;59.20
44607;DHT22;30315;46.072;14.474;2023-08-12T10:23:44;25.80;59.10
44607;DHT22;30315;46.072;14.474;2023-08-12T10:26:14;25.90;58.80
44607;DHT22;30315;46.072;14.474;2023-08-12T10:28:42;25.90;58.60
44607;DHT22;30315;46.072;14.474;2023-08-12T10:31:11;26.00;58.20
44607;DHT22;30315;46.072;14.474;2023-08-12T10:33:39;26.10;57.70
44607;DHT22;30315;46.072;14.474;2023-08-12T10:36:07;26.10;57.40
44607;DHT22;30315;46.072;14.474;2023-08-12T10:38:35;26.10;57.60
44607;DHT22;30315;46.072;14.474;2023-08-12T10:43:54;26.20;58.00
44607;DHT22;30315;46.072;14.474;2023-08-12T10:51:47;26.40;58.10
44607;DHT22;30315;46.072;14.474;2023-08-12T10:57:04;26.50;58.00
44607;DHT22;30315;46.072;14.474;2023-08-12T10:59:53;26.60;57.90
44607;DHT22;30315;46.072;14.474;2023-08-12T11:02:33;26.70;57.80
44607;DHT22;30315;46.072;14.474;2023-08-12T11:07:45;26.80;57.30
44607;DHT22;30315;46.072;14.474;2023-08-12T11:10:17;26.90;57.40
44607;DHT22;30315;46.072;14.474;2023-08-12T11:12:54;26.90;55.90
44607;DHT22;30315;46.072;14.474;2023-08-12T11:15:36;26.70;55.90
44607;DHT22;30315;46.072;14.474;2023-08-12T11:18:06;27.10;56.40
44607;DHT22;30315;46.072;14.474;2023-08-12T11:20:34;27.10;56.90
44607;DHT22;30315;46.072;14.474;2023-08-12T11:23:02;27.20;57.10
44607;DHT22;30315;46.072;14.474;2023-08-12T11:25:31;27.30;57.00
44607;DHT22;30315;46.072;14.474;2023-08-12T11:27:59;27.40;57.50
44607;DHT22;30315;46.072;14.474;2023-08-12T11:30:26;27.50;58.90
44607;DHT22;30315;46.072;14.474;2023-08-12T11:32:59;27.50;59.30
44607;DHT22;30315;46.072;14.474;2023-08-12T11:35:27;27.70;58.60
44607;DHT22;30315;46.072;14.474;2023-08-12T11:37:56;27.70;58.70
44607;DHT22;30315;46.072;14.474;2023-08-12T11:40:27;27.80;57.80
44607;DHT22;30315;46.072;14.474;2023-08-12T11:42:55;27.90;57.80
44607;DHT22;30315;46.072;14.474;2023-08-12T11:45:25;28.00;58.90
44607;DHT22;30315;46.072;14.474;2023-08-12T11:47:54;28.10;58.40
44607;DHT22;30315;46.072;14.474;2023-08-12T11:50:24;28.20;58.50
44607;DHT22;30315;46.072;14.474;2023-08-12T11:52:53;28.30;58.30
44607;DHT22;30315;46.072;14.474;2023-08-12T11:55:22;28.30;58.20
44607;DHT22;30315;46.072;14.474;2023-08-12T11:57:51;28.50;58.20
44607;DHT22;30315;46.072;14.474;2023-08-12T12:00:19;28.60;57.30
44607;DHT22;30315;46.072;14.474;2023-08-12T12:02:55;28.20;56.70
44607;DHT22;30315;46.072;14.474;2023-08-12T12:05:29;28.70;56.60
44607;DHT22;30315;46.072;14.474;2023-08-12T12:08:02;28.80;56.90
44607;DHT22;30315;46.072;14.474;2023-08-12T12:10:32;28.90;56.20
44607;DHT22;30315;46.072;14.474;2023-08-12T12:13:02;28.90;55.50
44607;DHT22;30315;46.072;14.474;2023-08-12T12:15:30;28.90;55.80
44607;DHT22;30315;46.072;14.474;2023-08-12T12:17:58;28.90;56.70
44607;DHT22;30315;46.072;14.474;2023-08-12T12:20:25;29.00;57.50
44607;DHT22;30315;46.072;14.474;2023-08-12T12:22:54;29.20;57.20
44607;DHT22;30315;46.072;14.474;2023-08-12T12:25:22;29.20;56.60
44607;DHT22;30315;46.072;14.474;2023-08-12T12:27:50;29.30;56.20
44607;DHT22;30315;46.072;14.474;2023-08-12T12:30:20;29.10;54.90
44607;DHT22;30315;46.072;14.474;2023-08-12T12:32:48;29.40;55.70
44607;DHT22;30315;46.072;14.474;2023-08-12T12:35:15;29.60;56.20
44607;DHT22;30315;46.072;14.474;2023-08-12T12:37:43;29.70;54.60
44607;DHT22;30315;46.072;14.474;2023-08-12T12:40:11;29.70;53.70
44607;DHT22;30315;46.072;14.474;2023-08-12T12:42:38;29.80;54.60
44607;DHT22;30315;46.072;14.474;2023-08-12T12:45:06;29.80;54.60
44607;DHT22;30315;46.072;14.474;2023-08-12T12:47:33;29.80;54.40
44607;DHT22;30315;46.072;14.474;2023-08-12T12:50:00;29.90;54.20
44607;DHT22;30315;46.072;14.474;2023-08-12T12:52:27;30.00;53.90
44607;DHT22;30315;46.072;14.474;2023-08-12T12:54:54;30.10;53.80
44607;DHT22;30315;46.072;14.474;2023-08-12T12:57:22;30.20;54.00
44607;DHT22;30315;46.072;14.474;2023-08-12T12:59:50;30.20;54.20
44607;DHT22;30315;46.072;14.474;2023-08-12T13:02:17;30.40;53.70
44607;DHT22;30315;46.072;14.474;2023-08-12T13:04:44;30.50;53.10
44607;DHT22;30315;46.072;14.474;2023-08-12T13:07:11;30.50;51.80
44607;DHT22;30315;46.072;14.474;2023-08-12T13:09:38;30.60;51.80
44607;DHT22;30315;46.072;14.474;2023-08-12T13:12:08;30.60;51.70
44607;DHT22;30315;46.072;14.474;2023-08-12T13:14:35;30.80;52.60
44607;DHT22;30315;46.072;14.474;2023-08-12T13:17:02;30.90;53.00
44607;DHT22;30315;46.072;14.474;2023-08-12T13:19:29;30.90;51.80
44607;DHT22;30315;46.072;14.474;2023-08-12T13:21:57;31.00;51.00
44607;DHT22;30315;46.072;14.474;2023-08-12T13:24:24;31.10;51.30
44607;DHT22;30315;46.072;14.474;2023-08-12T13:26:51;31.10;51.10
44607;DHT22;30315;46.072;14.474;2023-08-12T13:29:19;31.20;50.10
44607;DHT22;30315;46.072;14.474;2023-08-12T13:31:46;31.20;50.30
44607;DHT22;30315;46.072;14.474;2023-08-12T13:34:14;31.30;50.00
44607;DHT22;30315;46.072;14.474;2023-08-12T13:36:41;31.40;50.50
44607;DHT22;30315;46.072;14.474;2023-08-12T13:39:08;31.40;50.20
44607;DHT22;30315;46.072;14.474;2023-08-12T13:41:35;31.50;50.10
44607;DHT22;30315;46.072;14.474;2023-08-12T13:44:02;31.60;50.70
44607;DHT22;30315;46.072;14.474;2023-08-12T13:46:30;31.70;50.50
44607;DHT22;30315;46.072;14.474;2023-08-12T13:48:57;31.80;50.00
44607;DHT22;30315;46.072;14.474;2023-08-12T13:51:24;31.90;49.50
44607;DHT22;30315;46.072;14.474;2023-08-12T13:53:51;32.00;49.20
44607;DHT22;30315;46.072;14.474;2023-08-12T13:56:19;32.10;48.50
44607;DHT22;30315;46.072;14.474;2023-08-12T13:58:47;32.20;48.50
44607;DHT22;30315;46.072;14.474;2023-08-12T14:01:14;32.30;49.10
44607;DHT22;30315;46.072;14.474;2023-08-12T14:03:41;32.30;48.80
44607;DHT22;30315;46.072;14.474;2023-08-12T14:06:08;32.50;49.60
44607;DHT22;30315;46.072;14.474;2023-08-12T14:08:36;32.50;48.90
44607;DHT22;30315;46.072;14.474;2023-08-12T14:11:03;32.60;48.80
44607;DHT22;30315;46.072;14.474;2023-08-12T14:13:30;32.70;49.10
44607;DHT22;30315;46.072;14.474;2023-08-12T14:15:57;32.80;48.90
44607;DHT22;30315;46.072;14.474;2023-08-12T14:18:24;32.90;48.00
44607;DHT22;30315;46.072;14.474;2023-08-12T14:20:52;32.70;48.10
44607;DHT22;30315;46.072;14.474;2023-08-12T14:23:19;33.00;48.20
44607;DHT22;30315;46.072;14.474;2023-08-12T14:25:46;33.10;48.00
44607;DHT22;30315;46.072;14.474;2023-08-12T14:28:13;33.20;47.80
44607;DHT22;30315;46.072;14.474;2023-08-12T14:30:40;33.30;48.10
44607;DHT22;30315;46.072;14.474;2023-08-12T14:33:07;33.10;47.00
44607;DHT22;30315;46.072;14.474;2023-08-12T14:35:34;33.40;46.70
44607;DHT22;30315;46.072;14.474;2023-08-12T14:38:05;33.40;47.10
44607;DHT22;30315;46.072;14.474;2023-08-12T14:40:33;33.50;47.10
44607;DHT22;30315;46.072;14.474;2023-08-12T14:43:01;33.50;46.20
44607;DHT22;30315;46.072;14.474;2023-08-12T14:45:28;33.60;46.60
44607;DHT22;30315;46.072;14.474;2023-08-12T14:47:56;33.70;46.50
44607;DHT22;30315;46.072;14.474;2023-08-12T14:50:23;33.80;46.30
44607;DHT22;30315;46.072;14.474;2023-08-12T14:52:51;33.80;46.00
44607;DHT22;30315;46.072;14.474;2023-08-12T14:55:18;33.90;46.40
44607;DHT22;30315;46.072;14.474;2023-08-12T14:57:45;33.90;46.30
44607;DHT22;30315;46.072;14.474;2023-08-12T15:00:13;33.60;45.50
44607;DHT22;30315;46.072;14.474;2023-08-12T15:02:41;34.10;45.60
44607;DHT22;30315;46.072;14.474;2023-08-12T15:05:09;34.20;44.70
44607;DHT22;30315;46.072;14.474;2023-08-12T15:07:37;34.20;45.00
44607;DHT22;30315;46.072;14.474;2023-08-12T15:10:04;34.30;45.90
44607;DHT22;30315;46.072;14.474;2023-08-12T15:12:32;34.30;45.90
44607;DHT22;30315;46.072;14.474;2023-08-12T15:14:59;34.30;45.60
44607;DHT22;30315;46.072;14.474;2023-08-12T15:17:27;34.40;44.70
44607;DHT22;30315;46.072;14.474;2023-08-12T15:19:54;34.50;44.90
44607;DHT22;30315;46.072;14.474;2023-08-12T15:22:22;34.60;43.90
44607;DHT22;30315;46.072;14.474;2023-08-12T15:24:49;34.60;44.00
44607;DHT22;30315;46.072;14.474;2023-08-12T15:27:17;34.60;44.10
44607;DHT22;30315;46.072;14.474;2023-08-12T15:29:44;34.60;44.40
44607;DHT22;30315;46.072;14.474;2023-08-12T15:32:11;34.60;44.50
44607;DHT22;30315;46.072;14.474;2023-08-12T15:34:38;34.70;44.50
44607;DHT22;30315;46.072;14.474;2023-08-12T15:37:06;34.80;44.70
44607;DHT22;30315;46.072;14.474;2023-08-12T15:39:33;34.80;45.10